Time;durP1;ratioP1;P1;durP2;ratioP2;P2;SDS_P1;SDS_P2;PMS_P1;PMS_P2;Temp;Humidity;BMP_temperature;BMP_pressure;BME280_temperature;BME280_humidity;BME280_pressure;Samples;Min_cycle;Max_cycle;Signal;HPM_P1;HPM_P2
2022/01/06 10:43:58;;;;;;;12.10;2.20;;;16.50;99.90;;;;;;6233444;22;1912172;-62
2022/01/06 10:46:39;;;;;;;10.57;2.92;;;16.40;99.90;;;;;;6244728;23;20039;-62
2022/01/06 10:49:14;;;;;;;11.55;3.47;;;16.40;99.90;;;;;;6244521;23;20336;-63
2022/01/06 10:51:45;;;;;;;8.23;3.10;;;16.50;99.90;;;;;;6246067;22;20461;-62
2022/01/06 10:54:20;;;;;;;9.73;3.58;;;16.50;99.90;;;;;;6245532;22;19996;-63
2022/01/06 10:57:11;;;;;;;8.75;3.80;;;16.50;99.90;;;;;;6215854;23;20083;-62
2022/01/06 10:59:38;;;;;;;14.18;3.35;;;16.60;99.90;;;;;;6215854;23;20067;-63
2022/01/06 11:02:05;;;;;;;8.18;2.60;;;16.70;99.90;;;;;;6215788;23;20480;-62
2022/01/06 11:04:32;;;;;;;6.63;2.85;;;16.60;99.90;;;;;;6215776;23;20001;-62
2022/01/06 11:06:59;;;;;;;19.75;3.92;;;16.70;99.90;;;;;;6214791;23;20004;-63
2022/01/06 11:09:29;;;;;;;10.90;2.60;;;16.60;99.90;;;;;;6214176;23;20315;-63
2022/01/06 11:14:45;;;;;;;11.45;2.65;;;16.50;99.90;;;;;;6153402;23;20029;-63
2022/01/06 11:17:11;;;;;;;9.00;2.55;;;16.50;99.90;;;;;;6153791;23;20060;-63
2022/01/06 11:19:38;;;;;;;4.95;2.58;;;16.50;99.90;;;;;;6153705;23;20009;-62
2022/01/06 11:22:06;;;;;;;7.75;2.55;;;16.60;99.90;;;;;;6153931;23;20005;-63
2022/01/06 11:24:33;;;;;;;10.63;3.50;;;16.60;99.90;;;;;;6153510;23;20001;-63
2022/01/06 11:27:04;;;;;;;14.75;4.45;;;16.70;99.90;;;;;;6155942;23;20017;-63
2022/01/06 11:29:34;;;;;;;8.50;2.60;;;16.80;99.90;;;;;;6155288;23;20079;-63
2022/01/06 11:32:16;;;;;;;14.45;2.38;;;16.80;99.90;;;;;;6155184;23;20021;-62
2022/01/06 11:34:43;;;;;;;14.63;2.90;;;16.80;99.90;;;;;;6155261;23;20380;-63
2022/01/06 11:37:14;;;;;;;8.30;2.63;;;17.00;99.90;;;;;;6155203;23;20076;-62
2022/01/06 11:39:42;;;;;;;8.43;2.72;;;16.90;99.90;;;;;;6155032;23;20056;-62
2022/01/06 11:42:17;;;;;;;8.98;2.05;;;16.90;99.90;;;;;;6154236;23;20020;-62
2022/01/06 11:44:54;;;;;;;7.90;2.70;;;16.90;99.90;;;;;;6153947;23;20096;-63
2022/01/06 11:47:37;;;;;;;14.57;3.08;;;16.80;99.90;;;;;;6154118;23;20092;-63
2022/01/06 11:50:12;;;;;;;10.60;1.92;;;16.80;99.90;;;;;;6153946;23;20028;-62
2022/01/06 11:52:57;;;;;;;13.60;2.33;;;16.80;99.90;;;;;;6207239;23;20473;-62
2022/01/06 11:55:33;;;;;;;8.18;2.50;;;16.90;99.90;;;;;;6217233;23;20426;-62
2022/01/06 11:58:21;;;;;;;6.47;2.22;;;16.90;99.90;;;;;;6217897;23;20015;-63
2022/01/06 12:01:02;;;;;;;17.70;5.13;;;16.80;99.90;;;;;;6217645;23;20323;-63
2022/01/06 12:03:36;;;;;;;11.50;3.15;;;16.80;99.90;;;;;;6217376;23;20013;-63
2022/01/06 12:06:03;;;;;;;10.23;3.57;;;16.90;99.90;;;;;;6217387;23;20076;-62
2022/01/06 12:08:42;;;;;;;7.57;3.75;;;16.90;99.90;;;;;;6215611;23;20427;-62
2022/01/06 12:11:27;;;;;;;9.38;3.20;;;17.10;99.90;;;;;;6217995;23;20088;-63
2022/01/06 12:13:56;;;;;;;10.25;2.90;;;17.10;99.90;;;;;;6219176;23;20030;-63
2022/01/06 12:16:35;;;;;;;7.18;2.25;;;17.10;99.90;;;;;;6217422;23;19996;-63
2022/01/06 12:19:23;;;;;;;10.05;2.10;;;17.10;99.90;;;;;;6218057;23;20012;-63
2022/01/06 12:21:50;;;;;;;12.95;2.50;;;17.10;99.90;;;;;;6217706;23;20080;-62
2022/01/06 12:24:17;;;;;;;5.35;1.55;;;16.90;99.90;;;;;;6218667;23;20013;-62
2022/01/06 12:26:45;;;;;;;9.85;2.42;;;16.80;99.90;;;;;;6217986;23;20005;-62
2022/01/06 12:29:21;;;;;;;8.63;2.78;;;16.70;99.90;;;;;;6217399;23;20015;-62
2022/01/06 12:31:52;;;;;;;10.18;2.03;;;16.70;99.90;;;;;;6217925;23;20414;-62
2022/01/06 12:34:20;;;;;;;9.20;1.48;;;16.60;99.90;;;;;;6217076;23;20036;-63
2022/01/06 12:36:47;;;;;;;2.97;1.55;;;16.60;99.90;;;;;;6218030;23;20005;-63
2022/01/06 12:39:22;;;;;;;7.22;3.15;;;16.60;99.90;;;;;;6217359;23;20008;-62
2022/01/06 12:41:52;;;;;;;20.92;2.90;;;16.40;99.90;;;;;;6217686;23;20433;-62
2022/01/06 12:44:22;;;;;;;17.52;4.03;;;16.40;99.90;;;;;;6217716;23;20040;-63
2022/01/06 12:46:50;;;;;;;6.45;2.17;;;16.30;99.90;;;;;;6217527;23;20027;-62
2022/01/06 12:49:19;;;;;;;6.90;2.67;;;16.20;99.90;;;;;;6217125;23;20311;-62
2022/01/06 12:51:47;;;;;;;14.95;2.80;;;16.00;99.90;;;;;;6217220;23;20009;-62
2022/01/06 12:54:19;;;;;;;6.32;2.33;;;15.90;99.90;;;;;;6217217;23;20338;-62
2022/01/06 12:56:54;;;;;;;4.15;2.00;;;16.00;99.90;;;;;;6218165;23;20004;-62
2022/01/06 12:59:34;;;;;;;13.60;5.07;;;16.20;99.90;;;;;;6217536;23;20013;-62
2022/01/06 13:02:04;;;;;;;8.55;3.35;;;16.30;99.90;;;;;;6217251;23;20015;-63
2022/01/06 13:04:38;;;;;;;8.77;3.35;;;16.40;99.90;;;;;;6217757;23;20036;-62
2022/01/06 13:07:07;;;;;;;;;;;16.60;99.90;;;;;;6217248;23;20012;-62
2022/01/06 13:09:35;;;;;;;6.00;2.92;;;16.70;99.90;;;;;;6217185;23;20302;-62
2022/01/06 13:12:05;;;;;;;12.48;3.22;;;16.80;99.90;;;;;;6217973;23;20050;-63
2022/01/06 13:14:37;;;;;;;11.27;2.72;;;17.00;99.90;;;;;;6217030;23;20327;-63
2022/01/06 13:17:22;;;;;;;11.93;3.83;;;17.00;99.90;;;;;;6217191;23;20008;-63
2022/01/06 13:19:53;;;;;;;3.05;1.85;;;17.00;99.90;;;;;;6216958;23;20013;-63
2022/01/06 13:25:33;;;;;;;10.57;3.53;;;16.80;99.90;;;;;;6216841;23;20004;-63
2022/01/06 13:28:15;;;;;;;7.10;2.40;;;16.70;99.90;;;;;;6216714;23;20034;-63
2022/01/06 13:30:48;;;;;;;2.53;1.95;;;16.70;99.90;;;;;;6216639;23;20016;-63
2022/01/06 13:33:24;;;;;;;11.65;2.30;;;16.50;99.90;;;;;;6216354;23;20039;-63
2022/01/06 13:35:56;;;;;;;12.13;2.53;;;16.40;99.90;;;;;;6216320;23;20013;-62
2022/01/06 13:38:25;;;;;;;9.38;2.70;;;16.40;99.90;;;;;;6215795;23;20104;-62
2022/01/06 13:40:55;;;;;;;8.43;2.00;;;16.20;99.90;;;;;;6215506;23;20365;-63
2022/01/06 13:43:24;;;;;;;8.88;2.35;;;16.10;99.90;;;;;;6215808;23;20008;-63
2022/01/06 13:45:51;;;;;;;13.10;3.60;;;16.10;99.90;;;;;;6215008;23;20080;-63
2022/01/06 13:51:07;;;;;;;13.80;3.35;;;16.20;99.90;;;;;;6215143;23;20430;-63
2022/01/06 13:54:06;;;;;;;3.60;1.90;;;16.10;99.90;;;;;;6215479;23;20027;-64
2022/01/06 13:56:34;;;;;;;10.10;3.63;;;16.10;99.90;;;;;;6215354;23;20012;-63
2022/01/06 13:59:14;;;;;;;8.05;2.42;;;16.10;99.90;;;;;;6215401;23;20019;-63
2022/01/06 14:01:44;;;;;;;6.50;3.17;;;16.10;99.90;;;;;;6215543;23;20008;-63
2022/01/06 14:04:19;;;;;;;13.00;2.17;;;16.00;99.90;;;;;;6215398;23;20013;-63
2022/01/06 14:06:46;;;;;;;11.30;2.78;;;16.00;99.90;;;;;;6215365;23;20009;-63
2022/01/06 14:09:13;;;;;;;4.43;2.20;;;15.90;99.90;;;;;;6216118;23;20008;-63
2022/01/06 14:11:40;;;;;;;11.32;3.00;;;15.90;99.90;;;;;;6215716;23;20342;-63
2022/01/06 14:14:06;;;;;;;12.88;4.60;;;16.00;99.90;;;;;;6215793;23;20331;-63
2022/01/06 14:16:33;;;;;;;27.02;7.80;;;16.00;99.90;;;;;;6239097;23;20134;-62
2022/01/06 14:19:02;;;;;;;7.78;2.33;;;15.90;99.90;;;;;;6215320;23;20103;-63
2022/01/06 14:21:29;;;;;;;5.60;2.25;;;15.90;99.90;;;;;;6215216;23;20012;-63
2022/01/06 14:23:56;;;;;;;11.10;1.88;;;15.90;99.90;;;;;;6215035;23;20464;-63
2022/01/06 14:26:22;;;;;;;5.45;2.08;;;15.80;99.90;;;;;;6215510;23;20055;-63
2022/01/06 14:28:49;;;;;;;9.50;2.15;;;15.90;99.90;;;;;;6213596;23;20066;-63
2022/01/06 14:31:15;;;;;;;8.30;2.20;;;16.00;99.90;;;;;;6215051;23;20013;-63
2022/01/06 14:33:42;;;;;;;7.75;2.42;;;16.00;99.90;;;;;;6215240;23;20438;-63
2022/01/06 14:36:12;;;;;;;6.05;2.63;;;15.90;99.90;;;;;;6215441;23;20326;-63
2022/01/06 14:38:42;;;;;;;8.95;2.35;;;15.90;99.90;;;;;;6215157;23;20017;-63
2022/01/06 14:41:12;;;;;;;5.05;2.92;;;15.80;99.90;;;;;;6214963;23;20012;-63
2022/01/06 14:43:39;;;;;;;8.48;2.63;;;15.80;99.90;;;;;;6215115;23;20051;-63
2022/01/06 14:46:05;;;;;;;9.45;2.72;;;15.70;99.90;;;;;;6214941;23;20044;-63
2022/01/06 14:48:32;;;;;;;4.57;1.88;;;15.60;99.90;;;;;;6215287;23;20496;-62
2022/01/06 14:50:59;;;;;;;10.13;2.28;;;15.60;99.90;;;;;;6214842;23;20043;-62
2022/01/06 14:53:26;;;;;;;11.13;2.75;;;15.50;99.90;;;;;;6214997;23;20377;-62
2022/01/06 14:55:52;;;;;;;6.03;2.47;;;15.40;99.90;;;;;;6215055;23;20418;-62
2022/01/06 14:58:28;;;;;;;8.07;2.10;;;15.50;99.90;;;;;;6215225;23;20005;-64
2022/01/06 15:00:59;;;;;;;14.05;3.85;;;15.40;99.90;;;;;;6216985;23;20331;-64
2022/01/06 15:03:32;;;;;;;12.52;3.58;;;15.30;99.90;;;;;;6217487;23;20015;-65
2022/01/06 15:06:07;;;;;;;9.75;3.63;;;15.30;99.90;;;;;;6216940;23;20008;-64
2022/01/06 15:08:33;;;;;;;5.22;3.25;;;15.20;99.90;;;;;;6218087;23;20004;-64
2022/01/06 15:11:00;;;;;;;13.57;4.57;;;15.20;99.90;;;;;;6216636;23;20011;-63
2022/01/06 15:13:27;;;;;;;14.20;3.42;;;15.10;99.90;;;;;;6216747;23;20052;-63
2022/01/06 15:15:54;;;;;;;16.58;3.13;;;15.10;99.90;;;;;;6216684;23;20022;-63
2022/01/06 15:18:21;;;;;;;5.20;3.33;;;15.10;99.90;;;;;;6216863;23;20075;-64
2022/01/06 15:20:53;;;;;;;17.02;3.95;;;15.00;99.90;;;;;;6216664;23;20012;-64
2022/01/06 15:23:19;;;;;;;12.25;3.95;;;15.00;99.90;;;;;;6217138;23;20019;-64
2022/01/06 15:25:50;;;;;;;16.10;4.90;;;14.90;99.90;;;;;;6216703;23;20008;-64
2022/01/06 15:28:17;;;;;;;17.58;5.32;;;14.80;99.90;;;;;;6215217;23;20004;-64
2022/01/06 15:30:44;;;;;;;11.48;5.22;;;14.70;99.90;;;;;;6214978;23;20084;-64
2022/01/06 15:33:10;;;;;;;16.38;5.13;;;14.70;99.90;;;;;;6216574;23;20016;-62
2022/01/06 15:35:38;;;;;;;10.60;5.55;;;14.60;99.90;;;;;;6216551;23;20076;-64
2022/01/06 15:38:06;;;;;;;14.50;6.55;;;14.60;99.90;;;;;;6216967;23;20012;-63
2022/01/06 15:40:33;;;;;;;13.07;6.60;;;14.50;99.90;;;;;;6216565;23;20080;-63
2022/01/06 15:43:02;;;;;;;20.45;7.70;;;14.50;99.90;;;;;;6215056;23;20312;-64
2022/01/06 15:45:28;;;;;;;16.90;6.15;;;14.40;99.90;;;;;;6216529;23;20345;-63
2022/01/06 15:47:57;;;;;;;20.80;7.93;;;14.40;99.90;;;;;;6216671;23;20426;-64
2022/01/06 15:50:24;;;;;;;16.85;6.40;;;14.30;99.90;;;;;;6216501;23;20079;-62
2022/01/06 15:52:51;;;;;;;17.40;5.32;;;14.30;99.90;;;;;;6214831;23;20020;-62
2022/01/06 15:55:17;;;;;;;17.60;5.18;;;14.30;99.90;;;;;;6216477;23;20058;-61
2022/01/06 15:57:44;;;;;;;13.90;5.47;;;14.20;99.90;;;;;;6216490;23;20000;-61
2022/01/06 16:05:59;;;;;;;36.92;13.75;;;14.10;99.90;;;;;;6211885;23;20508;-60
2022/01/06 16:08:28;;;;;;;33.40;12.13;;;14.00;99.90;;;;;;6216365;23;20415;-60
2022/01/06 16:11:00;;;;;;;21.88;8.23;;;13.90;99.90;;;;;;6216180;23;20107;-60
2022/01/06 16:13:30;;;;;;;24.88;8.02;;;13.90;99.90;;;;;;6215693;23;20023;-60
2022/01/06 16:15:58;;;;;;;16.23;5.60;;;13.80;99.90;;;;;;6216463;23;20005;-60
2022/01/06 16:18:25;;;;;;;16.58;4.80;;;13.80;99.90;;;;;;6216425;23;20074;-60
2022/01/06 16:20:52;;;;;;;30.02;5.53;;;13.80;99.90;;;;;;6216632;23;20422;-60
2022/01/06 16:23:20;;;;;;;19.30;7.63;;;13.80;99.90;;;;;;6216210;23;20091;-60
2022/01/06 16:25:47;;;;;;;23.23;8.82;;;13.80;99.90;;;;;;6216398;23;20008;-59
2022/01/06 16:28:15;;;;;;;33.08;9.10;;;13.70;99.90;;;;;;6216402;23;20335;-60
2022/01/06 16:31:13;;;;;;;29.27;10.82;;;13.70;99.90;;;;;;6216254;23;20018;-60
2022/01/06 16:33:42;;;;;;;29.33;10.32;;;13.70;99.90;;;;;;6153708;23;20021;-60
2022/01/06 16:36:12;;;;;;;30.98;10.63;;;13.60;99.90;;;;;;6153798;23;20013;-60
2022/01/06 16:38:38;;;;;;;20.58;8.43;;;13.60;99.90;;;;;;6153903;23;20017;-60
2022/01/06 16:41:05;;;;;;;27.33;8.30;;;13.50;99.90;;;;;;6153378;23;20013;-64
2022/01/06 16:43:33;;;;;;;24.48;8.20;;;13.50;99.90;;;;;;6154035;23;20120;-61
2022/01/06 16:46:02;;;;;;;27.83;7.35;;;13.50;99.90;;;;;;6153386;23;20100;-61
2022/01/06 16:48:28;;;;;;;25.40;7.72;;;13.50;99.90;;;;;;6153698;23;20143;-60
2022/01/06 16:50:55;;;;;;;22.73;8.13;;;13.40;99.90;;;;;;6153552;23;20065;-60
2022/01/06 16:53:21;;;;;;;25.33;8.50;;;13.40;99.90;;;;;;6153675;23;20408;-60
2022/01/06 16:55:47;;;;;;;25.63;7.80;;;13.40;99.90;;;;;;6153739;23;20009;-60
2022/01/06 16:58:15;;;;;;;20.65;7.40;;;13.40;99.90;;;;;;6153927;23;20005;-60
2022/01/06 17:00:41;;;;;;;34.42;9.25;;;13.30;99.90;;;;;;6153461;23;20001;-60
2022/01/06 17:03:08;;;;;;;23.88;7.60;;;13.30;99.90;;;;;;6153843;23;20002;-60
2022/01/06 17:05:35;;;;;;;19.63;8.32;;;13.20;99.90;;;;;;6153547;23;20094;-61
2022/01/06 17:08:02;;;;;;;26.33;8.10;;;13.20;99.90;;;;;;6153543;23;20156;-61
2022/01/06 17:10:30;;;;;;;27.42;9.23;;;13.10;99.90;;;;;;6189557;23;20078;-60
2022/01/06 17:12:57;;;;;;;22.48;8.52;;;13.10;99.90;;;;;;6216755;23;20016;-60
2022/01/06 17:15:24;;;;;;;23.08;8.00;;;13.10;99.90;;;;;;6216858;23;20379;-60
2022/01/06 17:17:51;;;;;;;27.65;8.75;;;13.10;99.90;;;;;;6216458;23;20015;-60
2022/01/06 17:20:18;;;;;;;28.25;9.90;;;13.10;99.90;;;;;;6216518;23;20011;-60
2022/01/06 17:22:44;;;;;;;24.63;10.15;;;13.10;99.90;;;;;;6216631;23;20382;-60
2022/01/06 17:25:16;;;;;;;32.85;12.27;;;13.10;99.90;;;;;;6216416;23;20004;-60
2022/01/06 17:27:42;;;;;;;27.30;13.23;;;13.10;99.90;;;;;;6216362;23;20005;-60
2022/01/06 17:30:11;;;;;;;35.65;13.75;;;13.10;99.90;;;;;;6189739;23;20474;-60
2022/01/06 17:32:37;;;;;;;27.42;11.85;;;13.00;99.90;;;;;;6216172;23;20016;-60
2022/01/06 17:35:05;;;;;;;29.38;11.27;;;13.00;99.90;;;;;;6216191;23;20001;-61
2022/01/06 17:37:33;;;;;;;29.33;10.73;;;13.00;99.90;;;;;;6216509;23;20054;-61
2022/01/06 17:40:04;;;;;;;22.02;10.32;;;13.00;99.90;;;;;;6216378;23;20011;-61
2022/01/06 17:42:31;;;;;;;19.58;8.77;;;13.00;99.90;;;;;;6216250;23;20008;-61
2022/01/06 17:44:57;;;;;;;28.92;8.60;;;13.00;99.90;;;;;;6216307;23;20099;-60
2022/01/06 17:47:23;;;;;;;21.65;8.93;;;12.90;99.90;;;;;;6216658;23;20330;-61
2022/01/06 17:49:50;;;;;;;30.92;9.73;;;12.90;99.90;;;;;;6216223;23;20005;-61
2022/01/06 17:52:18;;;;;;;17.40;8.35;;;12.90;99.90;;;;;;6216026;23;20088;-61
2022/01/06 17:54:46;;;;;;;16.73;7.88;;;12.90;99.90;;;;;;6216236;23;20001;-61
2022/01/06 17:57:13;;;;;;;29.05;8.43;;;12.90;99.90;;;;;;6216146;23;20016;-61
2022/01/06 17:59:44;;;;;;;19.15;8.68;;;12.90;99.90;;;;;;6216095;23;20091;-60
2022/01/06 18:02:12;;;;;;;22.70;8.23;;;12.80;99.90;;;;;;6215901;23;20044;-60
2022/01/06 18:04:42;;;;;;;18.52;9.25;;;12.80;99.90;;;;;;6216450;23;20009;-60
2022/01/06 18:07:11;;;;;;;25.40;10.15;;;12.80;99.90;;;;;;6216105;23;20330;-60
2022/01/06 18:12:22;;;;;;;27.58;9.50;;;12.80;99.90;;;;;;6215912;23;20013;-60
2022/01/06 18:14:49;;;;;;;20.67;8.70;;;12.80;99.90;;;;;;6215983;23;20008;-60
2022/01/06 18:17:19;;;;;;;22.05;9.10;;;12.70;99.90;;;;;;6239814;23;20011;-60
2022/01/06 18:19:46;;;;;;;20.05;9.85;;;12.80;99.90;;;;;;6214471;23;20438;-60
2022/01/06 20:45:15;;;;;;;50.45;22.30;;;11.50;99.90;;;;;;6256710;22;20054;-70
2022/01/06 20:52:58;;;;;;;51.03;20.90;;;11.40;99.90;;;;;;6278117;22;20019;-71
2022/01/06 20:55:24;;;;;;;47.50;21.10;;;11.40;99.90;;;;;;6277755;22;20490;-72
2022/01/06 20:57:51;;;;;;;53.15;20.73;;;11.40;99.90;;;;;;6277517;22;20007;-72
2022/01/06 21:00:20;;;;;;;44.65;19.67;;;11.30;99.90;;;;;;6277759;22;20004;-72
2022/01/06 21:02:47;;;;;;;49.97;20.00;;;11.40;99.90;;;;;;6277701;22;20010;-72
2022/01/06 21:05:17;;;;;;;57.53;20.65;;;11.30;99.90;;;;;;6250819;22;20003;-72
2022/01/06 21:07:43;;;;;;;41.10;18.52;;;11.30;99.90;;;;;;6277556;22;20003;-72
2022/01/06 21:10:10;;;;;;;51.67;19.85;;;11.20;99.90;;;;;;6277534;22;20082;-72
2022/01/06 21:12:36;;;;;;;45.08;21.42;;;11.10;99.90;;;;;;6277410;22;20018;-71
2022/01/06 21:15:03;;;;;;;40.80;18.08;;;11.20;99.90;;;;;;6277299;22;20007;-72
2022/01/06 21:17:32;;;;;;;42.67;19.60;;;11.20;99.90;;;;;;6277901;22;20134;-72
2022/01/06 21:19:59;;;;;;;39.90;18.40;;;11.20;99.90;;;;;;6277532;22;20019;-71
2022/01/06 21:22:25;;;;;;;47.65;21.40;;;11.20;99.90;;;;;;6277512;22;20014;-72
2022/01/06 21:24:52;;;;;;;39.03;19.60;;;11.20;99.90;;;;;;6277329;22;20425;-71
2022/01/06 21:27:18;;;;;;;53.97;18.38;;;11.20;99.90;;;;;;6250566;22;20008;-71
2022/01/06 21:29:44;;;;;;;42.45;19.90;;;11.20;99.90;;;;;;6277461;22;20079;-72
2022/01/06 21:32:11;;;;;;;45.47;21.50;;;11.20;99.90;;;;;;6277301;22;20015;-72
2022/01/06 21:34:38;;;;;;;54.55;22.08;;;11.20;99.90;;;;;;6277397;22;19996;-71
2022/01/06 21:37:04;;;;;;;55.95;22.33;;;11.20;99.90;;;;;;6277293;22;20039;-71
2022/01/06 21:39:30;;;;;;;45.47;18.58;;;11.30;99.90;;;;;;6277659;22;20310;-71
2022/01/06 21:41:57;;;;;;;42.13;18.63;;;11.20;99.90;;;;;;6277083;22;20504;-73
2022/01/06 21:44:23;;;;;;;36.92;17.35;;;11.30;99.90;;;;;;6277101;22;20083;-73
2022/01/06 21:46:49;;;;;;;35.10;17.92;;;11.20;99.90;;;;;;6277031;22;20345;-72
2022/01/06 21:49:16;;;;;;;52.10;22.55;;;11.30;99.90;;;;;;6277355;22;20004;-72
2022/01/06 21:51:42;;;;;;;35.55;17.00;;;11.20;99.90;;;;;;6250024;22;20392;-72
2022/01/06 21:54:08;;;;;;;38.20;16.63;;;11.20;99.90;;;;;;6250018;22;20004;-72
2022/01/06 21:56:35;;;;;;;36.50;19.42;;;11.20;99.90;;;;;;6277136;22;20057;-72
2022/01/06 21:59:01;;;;;;;41.55;19.75;;;11.30;99.90;;;;;;6277147;22;20008;-72
2022/01/06 22:01:27;;;;;;;41.00;18.10;;;11.30;99.90;;;;;;6277192;22;20023;-72
2022/01/06 22:03:54;;;;;;;35.95;17.08;;;11.20;99.90;;;;;;6277087;22;20003;-72
2022/01/06 22:06:23;;;;;;;38.80;16.48;;;11.20;99.90;;;;;;6277283;22;20026;-72
2022/01/06 22:08:49;;;;;;;32.00;16.83;;;11.10;99.90;;;;;;6276934;22;20467;-72
2022/01/06 22:11:16;;;;;;;44.25;16.73;;;11.10;99.90;;;;;;6249587;22;20003;-72
2022/01/06 22:13:45;;;;;;;31.00;15.40;;;11.10;99.90;;;;;;6250109;22;20015;-72
2022/01/06 22:16:11;;;;;;;39.72;15.82;;;11.10;99.90;;;;;;6249972;22;20364;-72
2022/01/06 22:18:38;;;;;;;38.03;17.30;;;11.00;99.90;;;;;;6277313;22;20007;-73
2022/01/06 22:21:04;;;;;;;39.83;17.73;;;11.10;99.90;;;;;;6277302;22;20038;-72
2022/01/06 22:23:30;;;;;;;32.65;16.38;;;11.00;99.90;;;;;;6276988;22;20510;-72
2022/01/06 22:25:56;;;;;;;38.67;17.83;;;11.00;99.90;;;;;;6224425;22;20000;-72
2022/01/06 22:28:23;;;;;;;36.92;18.50;;;11.00;99.90;;;;;;6277320;22;20003;-72
2022/01/06 22:30:49;;;;;;;53.83;19.90;;;11.00;99.90;;;;;;6277291;22;20075;-72
2022/01/06 22:33:17;;;;;;;45.33;21.13;;;10.90;99.90;;;;;;6276830;22;20016;-72
2022/01/06 22:35:46;;;;;;;49.70;20.85;;;10.90;99.90;;;;;;6249772;22;20003;-71
2022/01/06 22:38:13;;;;;;;56.67;22.60;;;10.90;99.90;;;;;;6249906;22;20400;-71
2022/01/06 22:40:39;;;;;;;50.60;22.40;;;10.90;99.90;;;;;;6276988;22;20109;-71
2022/01/06 22:43:13;;;;;;;64.25;26.33;;;10.90;99.90;;;;;;6249721;22;20000;-71
2022/01/06 22:45:40;;;;;;;62.55;22.85;;;10.90;99.90;;;;;;6249946;22;20011;-73
2022/01/06 22:48:06;;;;;;;49.50;21.25;;;10.90;99.90;;;;;;6224383;22;20459;-72
2022/01/06 22:50:34;;;;;;;61.45;23.58;;;10.80;99.90;;;;;;6249702;22;20010;-82
2022/01/06 22:53:01;;;;;;;55.70;21.83;;;10.80;99.90;;;;;;6224491;22;20015;-72
2022/01/06 22:55:29;;;;;;;71.57;24.23;;;10.70;99.90;;;;;;6249949;22;20000;-61
2022/01/06 22:57:55;;;;;;;70.75;25.98;;;10.60;99.90;;;;;;6276764;22;20058;-61
2022/01/06 23:00:29;;;;;;;54.13;25.48;;;10.50;99.90;;;;;;6277076;22;20078;-61
2022/01/06 23:02:57;;;;;;;60.78;23.67;;;10.70;99.90;;;;;;6276751;22;20003;-61
2022/01/06 23:05:25;;;;;;;55.28;22.90;;;10.70;99.90;;;;;;6249604;22;20332;-62
2022/01/06 23:07:55;;;;;;;59.22;24.27;;;10.70;99.90;;;;;;6276666;22;20094;-62
2022/01/06 23:10:22;;;;;;;57.42;23.40;;;10.70;99.90;;;;;;6276764;22;20071;-62
2022/01/06 23:12:56;;;;;;;55.38;23.83;;;10.70;99.90;;;;;;6276577;22;20012;-62
2022/01/06 23:15:24;;;;;;;53.67;22.92;;;10.60;99.90;;;;;;6276822;22;20010;-61
2022/01/06 23:17:55;;;;;;;55.40;22.50;;;10.60;99.90;;;;;;6276585;22;20433;-62
2022/01/06 23:20:22;;;;;;;49.15;19.65;;;10.70;99.90;;;;;;6276694;22;20454;-62
2022/01/06 23:22:50;;;;;;;44.20;19.65;;;10.70;99.90;;;;;;6278424;22;20003;-61
2022/01/06 23:25:17;;;;;;;44.33;18.85;;;10.70;99.90;;;;;;6279019;22;20341;-61
2022/01/06 23:27:43;;;;;;;49.05;19.25;;;10.70;99.90;;;;;;6279086;22;20079;-62
2022/01/06 23:30:12;;;;;;;44.67;18.58;;;10.70;99.90;;;;;;6278930;22;20015;-62
2022/01/06 23:32:39;;;;;;;38.40;17.85;;;10.70;99.90;;;;;;6278859;22;20015;-62
2022/01/06 23:35:07;;;;;;;38.95;16.77;;;10.60;99.90;;;;;;6278442;22;20279;-61
2022/01/06 23:37:38;;;;;;;36.53;15.38;;;10.60;99.90;;;;;;6278426;22;20031;-62
2022/01/06 23:40:10;;;;;;;36.72;15.85;;;10.60;99.90;;;;;;6278504;22;20394;-61
2022/01/06 23:42:38;;;;;;;32.78;15.27;;;10.60;99.90;;;;;;6251389;22;20007;-62
2022/01/06 23:45:06;;;;;;;34.78;15.70;;;10.60;99.90;;;;;;6278193;22;20399;-62
2022/01/06 23:47:36;;;;;;;29.50;13.90;;;10.60;99.90;;;;;;6278511;22;20318;-61
2022/01/06 23:50:09;;;;;;;31.48;13.25;;;10.50;99.90;;;;;;6278477;22;19999;-62
2022/01/06 23:52:36;;;;;;;27.90;13.55;;;10.50;99.90;;;;;;6278406;22;20038;-61
2022/01/06 23:55:04;;;;;;;27.70;14.77;;;10.50;99.90;;;;;;6278323;22;20008;-62
2022/01/06 23:57:30;;;;;;;28.52;14.68;;;10.50;99.90;;;;;;6278346;22;20008;-62
2022/01/06 23:59:56;;;;;;;30.13;15.18;;;10.50;99.90;;;;;;6278431;22;20030;-62
